Miyazaki, Japan
Current Conditions -  °F | °C
As of 3:00 PM on Wednesday 26 Nov 2014 (Local Time) from RJFM Reporting Station
Broken Clouds Broken Clouds  
Wind Chill: 64°   Ceiling: 2500
Heat Index: 64°   Visibility: 4mi
Dew Point: 59°   Wind: 3mph
Humidity: 83%   Direction: 40°NE
Pressure: 29.85"   Gusts: NA
Location:  31.91°N, 131.42°E
Report Text: RJFM 260600Z 04003KT 350V090 7000 FEW008 SCT015 BKN025 18/15 Q1011
Loading
Personal Weather Stations






























Interactive Weather Map New forecast layout! Learn more

10-Day Weather Forecast

Advertisements
Track Severe Weather on mobile